Hovedside
METAR-TAF:

METAR-TAF

Lufthavner :

Kaolack, Senegal

breddegrad: 14-08N, lengdegrad: 016-04W, høyde over havet: 6 m

Gjeldene værobservasjon

Denne rapporten ble laget for 1 time og 9 minutter siden, klokken 03:00 UTC
Vind 6 kt fra Nord
Temperatur 22°C
Luftfuktighet 50%
Trykk 1012 hPa
Sikt 10 km eller mer
ingen skyer under 1500 m og ingen bygeskyer

METAR: GOOK 290300Z 36006KT CAVOK 22/11 Q1012

Tid: 04:09 (04:09 UTC)


TAF: fraværende

Værobservasjoner og værvarsel for over 4000 flyplasser (METAR- og TAF-rapporter).

Tilgjengelige stasjoner er representert av de røde og gule prikkene på kartet.

Hold musepekeren over prikken for å se navnet på stasjonen.

Klikk så for å se værobservasjoner og -varsler.

For å forandre kartet kan du klikke på den grønne knappen med svart kryss for å zoome inn, på den grønne knappen med strek for å zoome ut, eller på de grønne pilene for å se tilstøtende kart.


METAR-TAF: